Airfield :
LOGIN :

Register | Disclaimer

   EN    FR    IT 

 










Legend :    VFR   Marginal VFR   IFR   Intensive IFR   Very Intensive IFR
Visi :
Ceiling :
>= 8 km
>= 3000ft
5 to 8 km
1000 to 3000 ft
1500m to 5 km
500 to 1000 ft
800 to 1500m
200 to 500 ft
< 800m
< 200 ft
Symbols :   Thunderstorms  Fog  Heavy snow  Heavy precipitations  Wind > 20 kt
SIGMETs :     Misc.  Thunderstorms  Icing  Turbulence  Mountain Waves  Volcanic Ashes







- Airport Elevation : 242 ft
- IATA code : DUB


EIDW - Dublin

CURRENT METAR :
  • 211500Z 15011KT 9999 SCT023 BKN029 18/12 Q1004 NOSIG

EXPIRED METARs :
  • 211430Z 15013KT 9999 FEW024 BKN250 19/12 Q1005 NOSIG
  • 211400Z 15012KT 130V190 9999 FEW024 BKN250 19/11 Q1005 NOSIG
  • 211330Z 13010KT 100V160 9999 FEW024 BKN250 19/11 Q1005 NOSIG
  • 211300Z 15014KT 120V180 9999 FEW024 SCT080 BKN250 20/11 Q1005 NOSIG
  • 211230Z 16018KT 9999 FEW024 BKN250 19/11 Q1006 NOSIG

TAF TAF EIDW
Valid from the 21 at 12:00 until the 22 at 12:00 UTC


211100Z 2112/2212 13014KT 9999 FEW020 SCT040
TEMPO 2112/2116 15017G30KT
TEMPO 2114/2121 -SHRA SCT012 SCT018CB
BECMG 2116/2118 15010KT
BECMG 2118/2120 12008KT
TEMPO 2121/2201 4000 SHRA BKN010 BKN018CB
PROB30
TEMPO 2122/2124 3000 +RA
BECMG 2203/2206 16010KT
TEMPO 2203/2208 4000 -RA SCT005 BKN008
BECMG 2207/2209 24010KT
No reported NOTAMs for that airfield.



MET'MAP, your aeronautical weather chart ! - Copyright ORBIFLY December 2007 - Disclaimer

ORBIFLY MET'MAP TEAM :

Programming & Development : Alexandra Zaïnal
Concept & Development : Baudouin d'Aumeries
Co-Development & Prog : Marc-Olivier Méhu
Technical & hardware support : Manuel Goepfert

Contact : metmap@orbifly.com




SOURCES & CREDITS :

   NOAA